Time;durP1;ratioP1;P1;durP2;ratioP2;P2;SDS_P1;SDS_P2;PMS_P1;PMS_P2;Temp;Humidity;BMP_temperature;BMP_pressure;BME280_temperature;BME280_humidity;BME280_pressure;Samples;Min_cycle;Max_cycle;Signal;HPM_P1;HPM_P2
2023/06/16 00:00:11;;;;;;;;;;;;;;;;;;5136436;27;903;-67
2023/06/16 00:02:37;;;;;;;;;;;;;;;;;;5135159;27;1960;-67
2023/06/16 00:05:03;;;;;;;;;;;;;;;;;;5117576;27;881;-67
2023/06/16 00:07:33;;;;;;;;;;;;;;;;;;5135510;27;825;-67
2023/06/16 00:09:58;;;;;;;;;;;;;;;;;;5135578;27;927;-67
2023/06/16 00:12:23;;;;;;;;;;;;;;;;;;5135034;27;958;-67
2023/06/16 00:14:49;;;;;;;;;;;;;;;;;;5134071;27;832;-68
2023/06/16 00:17:14;;;;;;;;;;;;;;;;;;5136010;27;828;-67
2023/06/16 00:19:40;;;;;;;;;;;;;;;;;;5135717;27;923;-67
2023/06/16 00:22:07;;;;;;;;;;;;;;;;;;5117325;27;1913;-67
2023/06/16 00:24:32;;;;;;;;;;;;;;;;;;5133892;27;828;-68
2023/06/16 00:26:58;;;;;;;;;;;;;;;;;;5133715;27;836;-67
2023/06/16 00:29:23;;;;;;;;;;;;;;;;;;5133004;27;1297;-67
2023/06/16 00:31:48;;;;;;;;;;;;;;;;;;5134731;27;1034;-68
2023/06/16 00:34:14;;;;;;;;;;;;;;;;;;5133792;27;817;-67
2023/06/16 00:36:39;;;;;;;;;;;;;;;;;;5133313;27;939;-67
2023/06/16 00:39:04;;;;;;;;;;;;;;;;;;5133012;27;1234;-66
2023/06/16 00:41:29;;;;;;;;;;;;;;;;;;5132780;27;1917;-66
2023/06/16 00:43:55;;;;;;;;;;;;;;;;;;5134992;27;907;-67
2023/06/16 00:46:28;;;;;;;;;;;;;;;;;;5133504;27;808;-67
2023/06/16 00:48:55;;;;;;;;;;;;;;;;;;5133951;27;848;-66
2023/06/16 00:51:21;;;;;;;;;;;;;;;;;;5135032;27;887;-66
2023/06/16 00:53:47;;;;;;;;;;;;;;;;;;5134335;27;895;-66
2023/06/16 00:56:12;;;;;;;;;;;;;;;;;;5134771;27;1038;-66
2023/06/16 00:58:38;;;;;;;;;;;;;;;;;;5134316;27;888;-67
2023/06/16 01:01:03;;;;;;;;;;;;;;;;;;5134387;27;1914;-67
2023/06/16 01:03:29;;;;;;;;;;;;;;;;;;5132882;27;706;-67
2023/06/16 01:06:00;;;;;;;;;;;;;;;;;;5133626;27;954;-66
2023/06/16 01:08:28;;;;;;;;;;;;;;;;;;5134005;27;919;-66
2023/06/16 01:10:59;;;;;;;;;;;;;;;;;;5132328;27;1177;-67
2023/06/16 01:13:43;;;;;;;;;;;;;;;;;;5134474;27;926;-67
2023/06/16 01:16:10;;;;;;;;;;;;;;;;;;5132706;27;1276;-67
2023/06/16 01:18:39;;;;;;;;;;;;;;;;;;5133710;27;875;-67
2023/06/16 01:21:16;;;;;;;;;;;;;;;;;;5133753;27;1897;-67
2023/06/16 01:23:57;;;;;;;;;;;;;;;;;;5132072;27;1342;-67
2023/06/16 01:26:23;;;;;;;;;;;;;;;;;;5134124;27;903;-66
2023/06/16 01:28:49;;;;;;;;;;;;;;;;;;5133049;27;848;-67
2023/06/16 01:31:16;;;;;;;;;;;;;;;;;;5133921;27;923;-66
2023/06/16 01:33:41;;;;;;;;;;;;;;;;;;5133407;27;896;-66
2023/06/16 01:36:08;;;;;;;;;;;;;;;;;;5133538;27;891;-67
2023/06/16 01:38:35;;;;;;;;;;;;;;;;;;5133023;27;816;-67
2023/06/16 01:41:00;;;;;;;;;;;;;;;;;;5132342;27;1929;-67
2023/06/16 01:43:27;;;;;;;;;;;;;;;;;;5133287;27;820;-67
2023/06/16 01:45:53;;;;;;;;;;;;;;;;;;5132375;27;824;-66
2023/06/16 01:48:21;;;;;;;;;;;;;;;;;;5115044;27;1225;-67
2023/06/16 01:50:46;;;;;;;;;;;;;;;;;;5133231;27;761;-67
2023/06/16 01:53:12;;;;;;;;;;;;;;;;;;5131932;27;1258;-67
2023/06/16 01:55:37;;;;;;;;;;;;;;;;;;5131511;27;895;-67
2023/06/16 01:58:03;;;;;;;;;;;;;;;;;;5133876;27;1329;-67
2023/06/16 02:00:31;;;;;;;;;;;;;;;;;;5134427;27;859;-65
2023/06/16 02:03:05;;;;;;;;;;;;;;;;;;5132676;27;1973;-66
2023/06/16 02:05:33;;;;;;;;;;;;;;;;;;5132535;27;1288;-67
2023/06/16 02:08:00;;;;;;;;;;;;;;;;;;5134424;27;832;-67
2023/06/16 02:10:26;;;;;;;;;;;;;;;;;;5133212;27;1434;-66
2023/06/16 02:12:51;;;;;;;;;;;;;;;;;;5133558;27;829;-67
2023/06/16 02:15:17;;;;;;;;;;;;;;;;;;5134494;27;967;-66
2023/06/16 02:17:44;;;;;;;;;;;;;;;;;;5132848;27;1393;-66
2023/06/16 02:20:09;;;;;;;;;;;;;;;;;;5133432;27;940;-66
2023/06/16 02:22:35;;;;;;;;;;;;;;;;;;5131740;27;1913;-66
2023/06/16 02:25:00;;;;;;;;;;;;;;;;;;5133012;27;899;-66
2023/06/16 02:27:26;;;;;;;;;;;;;;;;;;5131301;27;1284;-66
2023/06/16 02:29:51;;;;;;;;;;;;;;;;;;5132282;27;840;-67
2023/06/16 02:32:16;;;;;;;;;;;;;;;;;;5132506;27;856;-65
2023/06/16 02:34:43;;;;;;;;;;;;;;;;;;5132396;27;1114;-66
2023/06/16 02:37:11;;;;;;;;;;;;;;;;;;5113958;27;1586;-66
2023/06/16 02:39:36;;;;;;;;;;;;;;;;;;5132688;27;1053;-66
2023/06/16 02:42:01;;;;;;;;;;;;;;;;;;5130719;27;1890;-67
2023/06/16 02:44:26;;;;;;;;;;;;;;;;;;5132814;27;932;-67
2023/06/16 02:46:52;;;;;;;;;;;;;;;;;;5132732;27;805;-66
2023/06/16 02:49:19;;;;;;;;;;;;;;;;;;5113677;28;1300;-66
2023/06/16 02:51:44;;;;;;;;;;;;;;;;;;5131218;28;1360;-66
2023/06/16 02:54:09;;;;;;;;;;;;;;;;;;5130609;27;1273;-67
2023/06/16 02:56:35;;;;;;;;;;;;;;;;;;5132153;28;863;-66
2023/06/16 02:59:00;;;;;;;;;;;;;;;;;;5130934;28;1253;-63
2023/06/16 03:01:29;;;;;;;;;;;;;;;;;;5132639;28;1918;-67
2023/06/16 03:03:55;;;;;;;;;;;;;;;;;;5130430;28;844;-66
2023/06/16 03:06:20;;;;;;;;;;;;;;;;;;5131198;28;1166;-66
2023/06/16 03:08:45;;;;;;;;;;;;;;;;;;5131854;28;888;-66
2023/06/16 03:11:11;;;;;;;;;;;;;;;;;;5132119;28;960;-67
2023/06/16 03:13:37;;;;;;;;;;;;;;;;;;5130561;28;1356;-67
2023/06/16 03:16:02;;;;;;;;;;;;;;;;;;5132324;28;848;-66
2023/06/16 03:18:27;;;;;;;;;;;;;;;;;;5130669;28;1030;-67
2023/06/16 03:20:53;;;;;;;;;;;;;;;;;;5131749;28;1878;-66
2023/06/16 03:23:18;;;;;;;;;;;;;;;;;;5131998;28;820;-66
2023/06/16 03:25:44;;;;;;;;;;;;;;;;;;5131821;27;887;-66
2023/06/16 03:28:10;;;;;;;;;;;;;;;;;;5130636;27;1228;-66
2023/06/16 03:30:35;;;;;;;;;;;;;;;;;;5130885;28;1260;-66
2023/06/16 03:33:01;;;;;;;;;;;;;;;;;;5130305;28;1013;-65
2023/06/16 03:35:26;;;;;;;;;;;;;;;;;;5131703;28;880;-66
2023/06/16 03:37:54;;;;;;;;;;;;;;;;;;5130584;28;1462;-66
2023/06/16 03:40:19;;;;;;;;;;;;;;;;;;5130729;27;1428;-67
2023/06/16 03:42:45;;;;;;;;;;;;;;;;;;5131156;28;1905;-67
2023/06/16 03:45:11;;;;;;;;;;;;;;;;;;5132519;28;911;-67
2023/06/16 03:47:36;;;;;;;;;;;;;;;;;;5132349;28;848;-66
2023/06/16 03:50:02;;;;;;;;;;;;;;;;;;5132538;27;777;-67
2023/06/16 03:52:28;;;;;;;;;;;;;;;;;;5131291;28;1224;-64
2023/06/16 03:54:53;;;;;;;;;;;;;;;;;;5130402;27;837;-63
2023/06/16 03:57:18;;;;;;;;;;;;;;;;;;5130308;27;1303;-63
2023/06/16 03:59:43;;;;;;;;;;;;;;;;;;5131317;28;1123;-63
2023/06/16 04:02:09;;;;;;;;;;;;;;;;;;5131697;27;1934;-64
2023/06/16 04:04:35;;;;;;;;;;;;;;;;;;5130714;27;1264;-64
2023/06/16 04:07:00;;;;;;;;;;;;;;;;;;5136184;27;808;-63
2023/06/16 04:09:26;;;;;;;;;;;;;;;;;;5134978;27;963;-63
2023/06/16 04:11:51;;;;;;;;;;;;;;;;;;5116280;27;1206;-63
2023/06/16 04:14:16;;;;;;;;;;;;;;;;;;5134414;27;891;-63
2023/06/16 04:16:42;;;;;;;;;;;;;;;;;;5133955;27;935;-67
2023/06/16 04:19:08;;;;;;;;;;;;;;;;;;5134987;27;903;-67
2023/06/16 04:21:33;;;;;;;;;;;;;;;;;;5116648;27;1890;-66
2023/06/16 04:23:59;;;;;;;;;;;;;;;;;;5133125;27;1213;-67
2023/06/16 04:26:26;;;;;;;;;;;;;;;;;;5133635;27;1304;-67
2023/06/16 04:28:54;;;;;;;;;;;;;;;;;;5134685;27;820;-67
2023/06/16 04:31:21;;;;;;;;;;;;;;;;;;5134122;27;856;-67
2023/06/16 04:33:46;;;;;;;;;;;;;;;;;;5134916;27;943;-68
2023/06/16 04:36:11;;;;;;;;;;;;;;;;;;5134923;27;892;-67
2023/06/16 04:38:36;;;;;;;;;;;;;;;;;;5132790;27;951;-67
2023/06/16 04:41:02;;;;;;;;;;;;;;;;;;5133368;27;1902;-66
2023/06/16 04:43:28;;;;;;;;;;;;;;;;;;5134810;27;864;-67
2023/06/16 04:45:53;;;;;;;;;;;;;;;;;;5134538;27;868;-66
2023/06/16 04:48:19;;;;;;;;;;;;;;;;;;5134451;27;884;-66
2023/06/16 04:50:45;;;;;;;;;;;;;;;;;;5134300;27;833;-66
2023/06/16 04:53:10;;;;;;;;;;;;;;;;;;5133553;27;1613;-66
2023/06/16 04:55:37;;;;;;;;;;;;;;;;;;5134190;27;891;-63
2023/06/16 04:58:03;;;;;;;;;;;;;;;;;;5134263;27;832;-67
2023/06/16 05:00:29;;;;;;;;;;;;;;;;;;5133521;27;907;-66
2023/06/16 05:02:55;;;;;;;;;;;;;;;;;;5131885;27;1917;-67
2023/06/16 05:05:20;;;;;;;;;;;;;;;;;;5133744;27;958;-67
2023/06/16 05:07:46;;;;;;;;;;;;;;;;;;5133678;27;959;-66
2023/06/16 05:10:12;;;;;;;;;;;;;;;;;;5132576;27;1359;-66
2023/06/16 05:12:37;;;;;;;;;;;;;;;;;;5133905;27;851;-67
2023/06/16 05:15:03;;;;;;;;;;;;;;;;;;5134232;27;1003;-66
2023/06/16 05:17:28;;;;;;;;;;;;;;;;;;5133754;27;799;-67
2023/06/16 05:19:53;;;;;;;;;;;;;;;;;;5132555;27;1308;-66
2023/06/16 05:22:23;;;;;;;;;;;;;;;;;;5132973;27;1882;-65
2023/06/16 05:24:49;;;;;;;;;;;;;;;;;;5134376;27;934;-67
2023/06/16 05:27:15;;;;;;;;;;;;;;;;;;5133186;27;928;-66
2023/06/16 05:29:40;;;;;;;;;;;;;;;;;;5132975;27;1182;-66
2023/06/16 05:32:05;;;;;;;;;;;;;;;;;;5132923;27;1215;-66
2023/06/16 05:34:30;;;;;;;;;;;;;;;;;;5132474;27;887;-66
2023/06/16 05:36:56;;;;;;;;;;;;;;;;;;5133790;27;987;-63
2023/06/16 05:39:21;;;;;;;;;;;;;;;;;;5132260;27;907;-63
2023/06/16 05:41:47;;;;;;;;;;;;;;;;;;5131834;27;1902;-63
2023/06/16 05:44:13;;;;;;;;;;;;;;;;;;5134143;27;844;-63
2023/06/16 05:46:38;;;;;;;;;;;;;;;;;;5114680;27;1241;-63
2023/06/16 05:49:03;;;;;;;;;;;;;;;;;;5133003;27;746;-63
2023/06/16 05:51:28;;;;;;;;;;;;;;;;;;5132408;27;808;-63
2023/06/16 05:53:54;;;;;;;;;;;;;;;;;;5132704;27;821;-63
2023/06/16 05:56:19;;;;;;;;;;;;;;;;;;5131596;27;1238;-63
2023/06/16 05:58:44;;;;;;;;;;;;;;;;;;5131589;27;1186;-63
2023/06/16 06:01:12;;;;;;;;;;;;;;;;;;5131681;27;1963;-63
2023/06/16 06:03:37;;;;;;;;;;;;;;;;;;5132909;27;848;-63
2023/06/16 06:06:03;;;;;;;;;;;;;;;;;;5132494;27;1112;-67
2023/06/16 06:08:28;;;;;;;;;;;;;;;;;;5131653;27;1269;-67
2023/06/16 06:10:59;;;;;;;;;;;;;;;;;;5131277;27;1304;-66
2023/06/16 06:13:24;;;;;;;;;;;;;;;;;;5132554;27;899;-67
2023/06/16 06:15:49;;;;;;;;;;;;;;;;;;5132486;27;851;-66
2023/06/16 06:18:16;;;;;;;;;;;;;;;;;;5133082;27;891;-63
2023/06/16 06:20:42;;;;;;;;;;;;;;;;;;5132250;27;879;-63
2023/06/16 06:23:07;;;;;;;;;;;;;;;;;;5131097;27;1969;-63
2023/06/16 06:25:32;;;;;;;;;;;;;;;;;;5130348;27;1202;-63
2023/06/16 06:27:58;;;;;;;;;;;;;;;;;;5131626;27;893;-63
2023/06/16 06:30:24;;;;;;;;;;;;;;;;;;5130632;27;853;-63
2023/06/16 06:32:50;;;;;;;;;;;;;;;;;;5131552;27;873;-63
2023/06/16 06:35:15;;;;;;;;;;;;;;;;;;5131955;27;805;-62
2023/06/16 06:37:41;;;;;;;;;;;;;;;;;;5130438;27;891;-62
2023/06/16 06:40:06;;;;;;;;;;;;;;;;;;5113213;27;1182;-62
2023/06/16 06:42:31;;;;;;;;;;;;;;;;;;5131839;27;1898;-62
2023/06/16 06:44:56;;;;;;;;;;;;;;;;;;5131783;27;915;-62
2023/06/16 06:47:22;;;;;;;;;;;;;;;;;;5131701;27;863;-62
2023/06/16 06:49:48;;;;;;;;;;;;;;;;;;5130494;27;871;-62
2023/06/16 06:52:13;;;;;;;;;;;;;;;;;;5131912;28;782;-63
2023/06/16 06:54:39;;;;;;;;;;;;;;;;;;5132386;28;934;-63
2023/06/16 06:57:04;;;;;;;;;;;;;;;;;;5131682;27;1074;-63
2023/06/16 06:59:30;;;;;;;;;;;;;;;;;;5131254;27;1466;-63
2023/06/16 07:01:55;;;;;;;;;;;;;;;;;;5132822;27;1964;-63
2023/06/16 07:04:20;;;;;;;;;;;;;;;;;;5132295;27;852;-64
2023/06/16 07:06:46;;;;;;;;;;;;;;;;;;5130259;28;1205;-63
2023/06/16 07:09:11;;;;;;;;;;;;;;;;;;5113923;28;1407;-63
2023/06/16 07:11:37;;;;;;;;;;;;;;;;;;5131261;28;875;-63
2023/06/16 07:14:02;;;;;;;;;;;;;;;;;;5132382;28;808;-64
2023/06/16 07:16:27;;;;;;;;;;;;;;;;;;5132089;27;793;-63
2023/06/16 07:18:53;;;;;;;;;;;;;;;;;;5130470;28;1196;-63
2023/06/16 07:21:18;;;;;;;;;;;;;;;;;;5130529;27;1960;-64
2023/06/16 07:23:44;;;;;;;;;;;;;;;;;;5113442;28;1381;-63
2023/06/16 07:26:09;;;;;;;;;;;;;;;;;;5132461;27;1031;-63
2023/06/16 07:28:34;;;;;;;;;;;;;;;;;;5130108;28;840;-63
2023/06/16 07:31:00;;;;;;;;;;;;;;;;;;5129850;28;835;-63
2023/06/16 07:33:25;;;;;;;;;;;;;;;;;;5130036;28;816;-63
2023/06/16 07:35:51;;;;;;;;;;;;;;;;;;5131563;28;852;-67
2023/06/16 07:38:16;;;;;;;;;;;;;;;;;;5130973;28;892;-67
2023/06/16 07:40:41;;;;;;;;;;;;;;;;;;5133214;27;938;-67
2023/06/16 07:43:06;;;;;;;;;;;;;;;;;;5117238;27;1958;-67
2023/06/16 07:45:33;;;;;;;;;;;;;;;;;;5135655;27;832;-66
2023/06/16 07:47:59;;;;;;;;;;;;;;;;;;5135391;27;965;-66
2023/06/16 07:50:24;;;;;;;;;;;;;;;;;;5134918;27;1102;-66
2023/06/16 07:52:49;;;;;;;;;;;;;;;;;;5135247;27;841;-67
2023/06/16 07:55:14;;;;;;;;;;;;;;;;;;5135530;27;954;-66
2023/06/16 07:57:40;;;;;;;;;;;;;;;;;;5133334;27;1368;-66
2023/06/16 08:00:11;;;;;;;;;;;;;;;;;;5116889;27;1324;-66
2023/06/16 08:02:36;;;;;;;;;;;;;;;;;;5134898;27;1898;-66
2023/06/16 08:05:02;;;;;;;;;;;;;;;;;;5133591;27;1161;-66
2023/06/16 08:07:27;;;;;;;;;;;;;;;;;;5133915;27;1235;-66
2023/06/16 08:09:52;;;;;;;;;;;;;;;;;;5134895;27;954;-66
2023/06/16 08:12:17;;;;;;;;;;;;;;;;;;5135067;27;1034;-66
2023/06/16 08:14:43;;;;;;;;;;;;;;;;;;5134730;27;875;-66
2023/06/16 08:17:08;;;;;;;;;;;;;;;;;;5134445;27;895;-66
2023/06/16 08:19:33;;;;;;;;;;;;;;;;;;5115794;27;1250;-65
2023/06/16 08:21:59;;;;;;;;;;;;;;;;;;5135572;27;1882;-66
2023/06/16 08:24:24;;;;;;;;;;;;;;;;;;5133963;27;939;-65
2023/06/16 08:57:19;;;;;;;;;;;;;;;;;;5149919;27;1711;-68
2023/06/16 08:59:45;;;;;;;;;;;;;;;;;;5150157;27;994;-68
2023/06/16 09:02:11;;;;;;;;;;;;;;;;;;5150742;27;836;-67
2023/06/16 09:04:37;;;;;;;;;;;;;;;;;;5150447;27;1979;-67
2023/06/16 09:07:03;;;;;;;;;;;;;;;;;;5151096;27;879;-67
2023/06/16 09:09:28;;;;;;;;;;;;;;;;;;5150690;27;992;-67
2023/06/16 09:12:23;;;;;;;;;;;;;;;;;;5151148;27;859;-67
2023/06/16 09:14:51;;;;;;;;;;;;;;;;;;5132758;27;1424;-68
2023/06/16 09:17:24;;;;;;;;;;;;;;;;;;5150504;27;915;-68
2023/06/16 09:19:51;;;;;;;;;;;;;;;;;;5150410;27;906;-68
2023/06/16 09:22:23;;;;;;;;;;;;;;;;;;5150129;27;962;-67
2023/06/16 09:24:57;;;;;;;;;;;;;;;;;;5149835;27;1897;-67
2023/06/16 09:27:26;;;;;;;;;;;;;;;;;;5150495;27;905;-67
2023/06/16 09:29:56;;;;;;;;;;;;;;;;;;5150369;27;832;-68
2023/06/16 09:32:21;;;;;;;;;;;;;;;;;;5150798;27;828;-67
2023/06/16 09:34:47;;;;;;;;;;;;;;;;;;5150473;27;904;-68
2023/06/16 09:37:12;;;;;;;;;;;;;;;;;;5150413;27;844;-68
2023/06/16 09:39:38;;;;;;;;;;;;;;;;;;5150604;27;876;-67
2023/06/16 09:42:03;;;;;;;;;;;;;;;;;;5149339;27;1166;-67
2023/06/16 09:44:30;;;;;;;;;;;;;;;;;;5150443;27;1890;-67
2023/06/16 09:46:58;;;;;;;;;;;;;;;;;;5150129;27;940;-68
2023/06/16 09:49:27;;;;;;;;;;;;;;;;;;5151115;27;978;-68
2023/06/16 09:51:53;;;;;;;;;;;;;;;;;;5150758;27;828;-68
2023/06/16 09:54:20;;;;;;;;;;;;;;;;;;5149516;27;832;-68
2023/06/16 09:56:45;;;;;;;;;;;;;;;;;;5144292;27;1493;-68
2023/06/16 09:59:11;;;;;;;;;;;;;;;;;;5135317;27;939;-68
2023/06/16 10:01:40;;;;;;;;;;;;;;;;;;5135839;27;816;-68
2023/06/16 10:04:05;;;;;;;;;;;;;;;;;;5133644;27;840;-68
2023/06/16 10:06:31;;;;;;;;;;;;;;;;;;5122196;27;1974;-68
2023/06/16 10:08:58;;;;;;;;;;;;;;;;;;5112483;28;821;-68
2023/06/16 10:11:24;;;;;;;;;;;;;;;;;;5114004;28;879;-68
2023/06/16 10:13:53;;;;;;;;;;;;;;;;;;5114109;28;903;-68
2023/06/16 10:16:20;;;;;;;;;;;;;;;;;;5115515;28;853;-68
2023/06/16 10:18:47;;;;;;;;;;;;;;;;;;5115475;28;873;-68
2023/06/16 10:21:12;;;;;;;;;;;;;;;;;;5115405;28;837;-68
2023/06/16 10:23:38;;;;;;;;;;;;;;;;;;5115064;28;929;-68
2023/06/16 10:26:05;;;;;;;;;;;;;;;;;;5114960;27;1882;-68
2023/06/16 10:28:31;;;;;;;;;;;;;;;;;;5115024;28;1111;-68
2023/06/16 10:30:58;;;;;;;;;;;;;;;;;;5114492;28;908;-67
2023/06/16 10:33:28;;;;;;;;;;;;;;;;;;5114130;28;1210;-67
2023/06/16 10:35:55;;;;;;;;;;;;;;;;;;5114651;28;991;-67
2023/06/16 10:38:34;;;;;;;;;;;;;;;;;;5113249;28;1420;-68
2023/06/16 10:41:01;;;;;;;;;;;;;;;;;;5114315;28;870;-68
2023/06/16 10:43:26;;;;;;;;;;;;;;;;;;5115905;28;793;-68
2023/06/16 10:46:10;;;;;;;;;;;;;;;;;;5115704;28;1901;-68
2023/06/16 10:48:56;;;;;;;;;;;;;;;;;;5115825;28;812;-68
2023/06/16 10:51:41;;;;;;;;;;;;;;;;;;5114891;28;1215;-68
2023/06/16 10:54:08;;;;;;;;;;;;;;;;;;5114986;28;955;-68
2023/06/16 10:56:52;;;;;;;;;;;;;;;;;;5114824;28;1345;-68
2023/06/16 10:59:17;;;;;;;;;;;;;;;;;;5114837;28;939;-68
2023/06/16 11:01:45;;;;;;;;;;;;;;;;;;5115064;28;941;-68
2023/06/16 11:04:14;;;;;;;;;;;;;;;;;;5115772;28;875;-67
2023/06/16 11:06:58;;;;;;;;;;;;;;;;;;5113885;28;1922;-67
2023/06/16 11:09:27;;;;;;;;;;;;;;;;;;5112337;28;1299;-65
2023/06/16 11:11:52;;;;;;;;;;;;;;;;;;5114677;28;690;-64
2023/06/16 11:14:17;;;;;;;;;;;;;;;;;;5114818;28;927;-65
2023/06/16 11:16:44;;;;;;;;;;;;;;;;;;5114327;28;967;-65
2023/06/16 11:19:10;;;;;;;;;;;;;;;;;;5113996;28;935;-65
2023/06/16 11:21:35;;;;;;;;;;;;;;;;;;5114345;28;808;-65
2023/06/16 11:24:11;;;;;;;;;;;;;;;;;;5113986;28;883;-65
2023/06/16 11:26:36;;;;;;;;;;;;;;;;;;5114067;28;1885;-65
2023/06/16 11:29:04;;;;;;;;;;;;;;;;;;5114263;28;980;-65
2023/06/16 11:31:31;;;;;;;;;;;;;;;;;;5114660;28;1244;-65
2023/06/16 11:33:56;;;;;;;;;;;;;;;;;;5113792;28;1028;-65
2023/06/16 11:36:23;;;;;;;;;;;;;;;;;;5114322;28;903;-65
2023/06/16 11:38:50;;;;;;;;;;;;;;;;;;5113559;28;1124;-65
2023/06/16 11:41:16;;;;;;;;;;;;;;;;;;5113976;28;843;-65
2023/06/16 11:43:41;;;;;;;;;;;;;;;;;;5113297;28;1257;-64
2023/06/16 11:46:06;;;;;;;;;;;;;;;;;;5111955;28;1893;-64
2023/06/16 11:48:32;;;;;;;;;;;;;;;;;;5113939;28;821;-64
2023/06/16 11:50:57;;;;;;;;;;;;;;;;;;5113655;28;1085;-64
2023/06/16 11:53:23;;;;;;;;;;;;;;;;;;5113205;28;1010;-64
2023/06/16 11:55:50;;;;;;;;;;;;;;;;;;5113787;28;1387;-65
2023/06/16 11:58:15;;;;;;;;;;;;;;;;;;5114144;28;972;-65
2023/06/16 12:00:41;;;;;;;;;;;;;;;;;;5114108;28;943;-65
2023/06/16 12:03:07;;;;;;;;;;;;;;;;;;5113284;28;1039;-64
2023/06/16 12:05:32;;;;;;;;;;;;;;;;;;5113507;28;1906;-64
2023/06/16 12:07:57;;;;;;;;;;;;;;;;;;5113015;28;880;-65
2023/06/16 12:10:23;;;;;;;;;;;;;;;;;;5113270;28;774;-65
2023/06/16 12:12:48;;;;;;;;;;;;;;;;;;5113183;28;953;-65
2023/06/16 12:15:18;;;;;;;;;;;;;;;;;;5113058;28;920;-65
2023/06/16 12:17:49;;;;;;;;;;;;;;;;;;5113518;28;852;-66
2023/06/16 12:20:16;;;;;;;;;;;;;;;;;;5112885;28;1123;-65
2023/06/16 12:22:41;;;;;;;;;;;;;;;;;;5112203;28;887;-64
2023/06/16 12:25:11;;;;;;;;;;;;;;;;;;5113410;28;1897;-65
2023/06/16 12:27:36;;;;;;;;;;;;;;;;;;5113754;28;889;-66
2023/06/16 12:30:03;;;;;;;;;;;;;;;;;;5113218;28;832;-65
2023/06/16 12:32:30;;;;;;;;;;;;;;;;;;5113761;28;852;-65
2023/06/16 12:34:55;;;;;;;;;;;;;;;;;;5113234;28;961;-65
2023/06/16 12:37:24;;;;;;;;;;;;;;;;;;5113588;28;1014;-65
2023/06/16 12:39:59;;;;;;;;;;;;;;;;;;5113338;28;844;-66
2023/06/16 12:42:27;;;;;;;;;;;;;;;;;;5113812;28;907;-66
2023/06/16 12:44:53;;;;;;;;;;;;;;;;;;5113618;28;1898;-66
2023/06/16 12:47:22;;;;;;;;;;;;;;;;;;5113185;28;825;-65
2023/06/16 12:49:47;;;;;;;;;;;;;;;;;;5112981;28;1246;-65
2023/06/16 12:52:14;;;;;;;;;;;;;;;;;;5112983;28;813;-66
2023/06/16 12:54:39;;;;;;;;;;;;;;;;;;5112718;28;999;-66
2023/06/16 12:57:05;;;;;;;;;;;;;;;;;;5112563;28;1218;-65
2023/06/16 12:59:30;;;;;;;;;;;;;;;;;;5111747;28;1320;-65
2023/06/16 13:01:56;;;;;;;;;;;;;;;;;;5111608;28;814;-65
2023/06/16 13:04:21;;;;;;;;;;;;;;;;;;5112098;28;852;-65
2023/06/16 13:06:47;;;;;;;;;;;;;;;;;;5113123;28;1918;-64
2023/06/16 13:09:12;;;;;;;;;;;;;;;;;;5112780;28;970;-65
2023/06/16 13:11:38;;;;;;;;;;;;;;;;;;5112729;28;1270;-64
2023/06/16 13:14:03;;;;;;;;;;;;;;;;;;5112557;28;967;-64
2023/06/16 13:16:30;;;;;;;;;;;;;;;;;;5112730;28;903;-65
2023/06/16 13:18:56;;;;;;;;;;;;;;;;;;5112447;28;1249;-65
2023/06/16 13:21:21;;;;;;;;;;;;;;;;;;5112478;28;805;-65
2023/06/16 13:23:46;;;;;;;;;;;;;;;;;;5111448;28;828;-65
2023/06/16 13:26:14;;;;;;;;;;;;;;;;;;5112091;28;1966;-65
2023/06/16 13:28:40;;;;;;;;;;;;;;;;;;5111090;28;1155;-65
2023/06/16 13:31:09;;;;;;;;;;;;;;;;;;5111925;28;900;-65
2023/06/16 13:33:37;;;;;;;;;;;;;;;;;;5116165;28;891;-65
2023/06/16 13:36:02;;;;;;;;;;;;;;;;;;5115391;28;875;-64
2023/06/16 13:38:28;;;;;;;;;;;;;;;;;;5115833;28;920;-65
2023/06/16 13:40:53;;;;;;;;;;;;;;;;;;5117051;28;1077;-65
2023/06/16 13:43:19;;;;;;;;;;;;;;;;;;5116569;28;869;-65
2023/06/16 13:45:44;;;;;;;;;;;;;;;;;;5116534;28;1919;-65
2023/06/16 13:48:11;;;;;;;;;;;;;;;;;;5115256;28;950;-65
2023/06/16 13:50:36;;;;;;;;;;;;;;;;;;5115301;28;1018;-66
2023/06/16 13:53:01;;;;;;;;;;;;;;;;;;5114863;28;865;-66
2023/06/16 13:55:26;;;;;;;;;;;;;;;;;;5115573;28;1105;-66
2023/06/16 13:57:54;;;;;;;;;;;;;;;;;;5115779;28;817;-66
2023/06/16 14:00:19;;;;;;;;;;;;;;;;;;5115669;28;908;-66
2023/06/16 14:02:44;;;;;;;;;;;;;;;;;;5115507;28;857;-64
2023/06/16 14:05:10;;;;;;;;;;;;;;;;;;5115689;28;1968;-65
2023/06/16 14:07:35;;;;;;;;;;;;;;;;;;5115625;28;1163;-66
2023/06/16 14:10:00;;;;;;;;;;;;;;;;;;5115843;28;857;-66
2023/06/16 14:12:26;;;;;;;;;;;;;;;;;;5115811;28;1057;-66
2023/06/16 14:14:51;;;;;;;;;;;;;;;;;;5116468;28;844;-65
2023/06/16 14:17:16;;;;;;;;;;;;;;;;;;5115998;28;900;-65
2023/06/16 14:19:41;;;;;;;;;;;;;;;;;;5116144;28;924;-65
2023/06/16 14:22:07;;;;;;;;;;;;;;;;;;5116042;28;904;-66
2023/06/16 14:24:32;;;;;;;;;;;;;;;;;;5116343;28;1011;-66
2023/06/16 14:26:57;;;;;;;;;;;;;;;;;;5116011;28;1890;-65
2023/06/16 14:29:22;;;;;;;;;;;;;;;;;;5116314;28;1251;-65
2023/06/16 14:31:48;;;;;;;;;;;;;;;;;;5116311;28;1082;-65
2023/06/16 14:34:13;;;;;;;;;;;;;;;;;;5115731;28;1188;-65
2023/06/16 14:36:38;;;;;;;;;;;;;;;;;;5116261;28;852;-65
2023/06/16 14:39:04;;;;;;;;;;;;;;;;;;5116127;28;923;-65
2023/06/16 14:41:29;;;;;;;;;;;;;;;;;;5097651;28;1269;-65
2023/06/16 14:43:54;;;;;;;;;;;;;;;;;;5116033;28;1038;-64
2023/06/16 14:46:20;;;;;;;;;;;;;;;;;;5113832;28;1989;-64
2023/06/16 14:48:45;;;;;;;;;;;;;;;;;;5115808;28;924;-64
2023/06/16 14:51:10;;;;;;;;;;;;;;;;;;5115262;28;911;-65
2023/06/16 14:53:36;;;;;;;;;;;;;;;;;;5097390;28;943;-64
2023/06/16 14:56:01;;;;;;;;;;;;;;;;;;5115170;28;1155;-64
2023/06/16 14:58:26;;;;;;;;;;;;;;;;;;5115249;28;971;-64
2023/06/16 15:00:52;;;;;;;;;;;;;;;;;;5115751;28;912;-64
2023/06/16 15:03:17;;;;;;;;;;;;;;;;;;5115460;28;892;-64
2023/06/16 15:05:43;;;;;;;;;;;;;;;;;;5115429;28;1909;-65
2023/06/16 15:08:08;;;;;;;;;;;;;;;;;;5114660;28;912;-65
2023/06/16 15:10:33;;;;;;;;;;;;;;;;;;5115217;28;829;-65
2023/06/16 15:12:59;;;;;;;;;;;;;;;;;;5115052;28;892;-65
2023/06/16 15:15:24;;;;;;;;;;;;;;;;;;5114929;28;892;-65
2023/06/16 15:17:49;;;;;;;;;;;;;;;;;;5115121;28;853;-65
2023/06/16 15:20:14;;;;;;;;;;;;;;;;;;5114651;28;852;-65
2023/06/16 15:22:40;;;;;;;;;;;;;;;;;;5114731;28;908;-65
2023/06/16 15:25:06;;;;;;;;;;;;;;;;;;5114892;28;1913;-65
2023/06/16 15:27:31;;;;;;;;;;;;;;;;;;5112873;28;983;-65
2023/06/16 15:29:56;;;;;;;;;;;;;;;;;;5114781;28;896;-64
2023/06/16 15:32:22;;;;;;;;;;;;;;;;;;5114404;28;928;-65
2023/06/16 15:34:47;;;;;;;;;;;;;;;;;;5114548;28;948;-65
2023/06/16 15:37:12;;;;;;;;;;;;;;;;;;5114038;28;844;-66
2023/06/16 15:39:37;;;;;;;;;;;;;;;;;;5114453;28;825;-65
2023/06/16 15:42:03;;;;;;;;;;;;;;;;;;5112749;28;892;-64
2023/06/16 15:44:28;;;;;;;;;;;;;;;;;;5114076;28;888;-64
2023/06/16 15:46:53;;;;;;;;;;;;;;;;;;5114626;28;1967;-64
2023/06/16 15:49:19;;;;;;;;;;;;;;;;;;5114184;28;852;-64
2023/06/16 15:51:44;;;;;;;;;;;;;;;;;;5114330;28;948;-64
2023/06/16 15:54:09;;;;;;;;;;;;;;;;;;5114298;28;896;-65
2023/06/16 15:56:35;;;;;;;;;;;;;;;;;;5113656;28;1360;-64
2023/06/16 15:59:00;;;;;;;;;;;;;;;;;;5114124;28;979;-64
2023/06/16 16:01:25;;;;;;;;;;;;;;;;;;5114006;28;635;-65
2023/06/16 16:03:51;;;;;;;;;;;;;;;;;;5115466;28;905;-64
2023/06/16 16:06:16;;;;;;;;;;;;;;;;;;5114656;28;1909;-64
2023/06/16 16:08:41;;;;;;;;;;;;;;;;;;5114802;28;869;-64
2023/06/16 16:11:07;;;;;;;;;;;;;;;;;;5114799;28;853;-64
2023/06/16 16:13:32;;;;;;;;;;;;;;;;;;5114440;28;883;-64
2023/06/16 16:15:58;;;;;;;;;;;;;;;;;;5113239;28;1182;-64
2023/06/16 16:18:23;;;;;;;;;;;;;;;;;;5115196;28;836;-64
2023/06/16 16:20:49;;;;;;;;;;;;;;;;;;5114481;28;1084;-64
2023/06/16 16:23:15;;;;;;;;;;;;;;;;;;5114649;28;856;-64
2023/06/16 16:25:40;;;;;;;;;;;;;;;;;;5114461;28;1901;-64
2023/06/16 16:28:05;;;;;;;;;;;;;;;;;;5114775;28;852;-65
2023/06/16 16:30:31;;;;;;;;;;;;;;;;;;5114037;28;1053;-65
2023/06/16 16:32:56;;;;;;;;;;;;;;;;;;5115076;28;857;-65
2023/06/16 16:35:21;;;;;;;;;;;;;;;;;;5114632;28;1617;-65
2023/06/16 16:37:46;;;;;;;;;;;;;;;;;;5114515;28;908;-65
2023/06/16 16:40:12;;;;;;;;;;;;;;;;;;5114018;28;1026;-65
2023/06/16 16:42:37;;;;;;;;;;;;;;;;;;5096066;28;1084;-65
2023/06/16 16:45:04;;;;;;;;;;;;;;;;;;5112769;28;1902;-65
2023/06/16 16:47:29;;;;;;;;;;;;;;;;;;5113318;28;931;-65
2023/06/16 16:49:55;;;;;;;;;;;;;;;;;;5114012;28;900;-65
2023/06/16 16:52:20;;;;;;;;;;;;;;;;;;5113400;28;852;-65
2023/06/16 16:54:46;;;;;;;;;;;;;;;;;;5113039;28;955;-65
2023/06/16 16:57:11;;;;;;;;;;;;;;;;;;5113155;28;1223;-65
2023/06/16 16:59:36;;;;;;;;;;;;;;;;;;5113064;28;1134;-65
2023/06/16 17:02:02;;;;;;;;;;;;;;;;;;5113685;28;994;-65
2023/06/16 17:04:27;;;;;;;;;;;;;;;;;;5113236;28;911;-65
2023/06/16 17:06:53;;;;;;;;;;;;;;;;;;5114590;28;1969;-65
2023/06/16 17:09:18;;;;;;;;;;;;;;;;;;5116304;28;828;-65
2023/06/16 17:11:43;;;;;;;;;;;;;;;;;;5118012;28;642;-65
2023/06/16 17:14:09;;;;;;;;;;;;;;;;;;5117418;27;1131;-65
2023/06/16 17:16:34;;;;;;;;;;;;;;;;;;5117222;28;944;-65
2023/06/16 17:19:00;;;;;;;;;;;;;;;;;;5116393;28;1666;-65
2023/06/16 17:21:25;;;;;;;;;;;;;;;;;;5117663;28;984;-65
2023/06/16 17:23:51;;;;;;;;;;;;;;;;;;5116642;28;833;-65
2023/06/16 17:26:17;;;;;;;;;;;;;;;;;;5117142;28;1893;-65
2023/06/16 17:28:42;;;;;;;;;;;;;;;;;;5117357;28;1031;-65
2023/06/16 17:31:07;;;;;;;;;;;;;;;;;;5116213;28;927;-65
2023/06/16 17:33:33;;;;;;;;;;;;;;;;;;5116912;28;982;-65
2023/06/16 17:35:58;;;;;;;;;;;;;;;;;;5116506;28;947;-65